createdAt,value
2022-10-05T00:00:03.099Z,10.31
2022-10-05T00:01:03.063Z,10.33
2022-10-05T00:02:03.089Z,10.33
2022-10-05T00:03:03.007Z,10.44
2022-10-05T00:04:03.210Z,10.46
2022-10-05T00:05:02.975Z,10.40
2022-10-05T00:06:02.905Z,10.46
2022-10-05T00:07:02.876Z,10.49
2022-10-05T00:08:02.917Z,10.48
2022-10-05T00:09:02.811Z,10.44
2022-10-05T00:10:02.764Z,10.44
2022-10-05T00:11:02.753Z,10.44
2022-10-05T00:12:02.716Z,10.41
2022-10-05T00:13:02.679Z,10.44
2022-10-05T00:14:02.691Z,10.38
2022-10-05T00:15:02.602Z,10.44
2022-10-05T00:16:02.646Z,10.41
2022-10-05T00:17:02.638Z,10.34
2022-10-05T00:18:02.498Z,10.35
2022-10-05T00:19:02.559Z,10.31
2022-10-05T00:20:02.433Z,10.34
2022-10-05T00:21:02.401Z,10.34
2022-10-05T00:22:02.374Z,10.35
2022-10-05T00:23:02.442Z,10.31
2022-10-05T00:24:02.309Z,10.35
2022-10-05T00:25:02.332Z,10.31
2022-10-05T00:26:02.240Z,10.37
2022-10-05T00:27:02.210Z,10.28
2022-10-05T00:28:02.221Z,10.26
2022-10-05T00:29:02.130Z,10.33
2022-10-05T00:30:02.102Z,10.30
2022-10-05T00:31:02.126Z,10.28
2022-10-05T00:32:02.103Z,10.26
2022-10-05T00:33:02.003Z,10.37
2022-10-05T00:34:02.032Z,10.26
2022-10-05T00:35:01.939Z,10.26
2022-10-05T00:36:01.886Z,10.34
2022-10-05T00:37:01.895Z,10.31
2022-10-05T00:38:01.836Z,10.28
2022-10-05T00:39:01.847Z,10.12
2022-10-05T00:40:01.764Z,10.13
2022-10-05T00:41:01.730Z,10.15
2022-10-05T00:42:01.708Z,10.16
2022-10-05T00:43:01.657Z,10.22
2022-10-05T00:44:01.691Z,10.15
2022-10-05T00:45:01.600Z,10.25
2022-10-05T00:46:01.601Z,10.17
2022-10-05T00:47:01.542Z,10.15
2022-10-05T00:48:01.490Z,10.17
2022-10-05T00:49:01.525Z,10.17
2022-10-05T00:50:01.420Z,10.26
2022-10-05T00:51:01.390Z,10.30
2022-10-05T00:52:01.346Z,10.31
2022-10-05T00:53:01.332Z,10.30
2022-10-05T00:54:01.296Z,10.31
2022-10-05T00:55:01.350Z,10.26
2022-10-05T00:56:01.222Z,10.25
2022-10-05T00:57:01.206Z,10.33
2022-10-05T00:58:01.191Z,10.37
2022-10-05T00:59:01.139Z,10.26
2022-10-05T01:00:01.158Z,10.33
2022-10-05T01:01:01.117Z,10.38
2022-10-05T01:02:01.053Z,10.31
2022-10-05T01:03:01.002Z,10.26
2022-10-05T01:04:00.954Z,10.35
2022-10-05T01:05:01.021Z,10.49
2022-10-05T01:06:00.874Z,10.44
2022-10-05T01:07:00.849Z,10.46
2022-10-05T01:08:00.840Z,10.42
2022-10-05T01:09:00.799Z,10.49
2022-10-05T01:10:00.764Z,10.48
2022-10-05T01:11:00.776Z,10.49
2022-10-05T01:12:00.743Z,10.56
2022-10-05T01:13:00.698Z,10.54
2022-10-05T01:14:00.636Z,10.48
2022-10-05T01:15:00.585Z,10.49
2022-10-05T01:16:00.583Z,10.51
2022-10-05T01:17:00.594Z,10.44
2022-10-05T01:18:00.556Z,10.48
2022-10-05T01:19:00.444Z,10.44
2022-10-05T01:20:00.411Z,10.44
2022-10-05T01:21:00.397Z,10.26
2022-10-05T01:22:00.342Z,10.31
2022-10-05T01:23:00.388Z,10.30
2022-10-05T01:24:00.276Z,10.38
2022-10-05T01:25:00.247Z,10.31
2022-10-05T01:26:00.215Z,10.34
2022-10-05T01:27:00.184Z,10.26
2022-10-05T01:28:00.217Z,10.34
2022-10-05T01:29:00.159Z,10.26
2022-10-05T01:30:00.089Z,10.33
2022-10-05T01:31:00.057Z,10.25
2022-10-05T01:32:00.055Z,10.26
2022-10-05T01:32:59.980Z,10.31
2022-10-05T01:34:00.021Z,10.15
2022-10-05T01:34:59.913Z,10.13
2022-10-05T01:35:59.889Z,10.15
2022-10-05T01:36:59.841Z,10.16
2022-10-05T01:37:59.880Z,10.15
2022-10-05T01:38:59.782Z,10.13
2022-10-05T01:39:59.745Z,10.17
2022-10-05T01:40:59.709Z,10.19
2022-10-05T01:41:59.674Z,10.17
2022-10-05T01:42:59.641Z,10.23
2022-10-05T01:43:59.704Z,10.20
2022-10-05T01:44:59.590Z,10.19
2022-10-05T01:45:59.600Z,10.15
2022-10-05T01:46:59.521Z,9.99
2022-10-05T01:47:59.495Z,10.04
2022-10-05T01:48:59.449Z,10.04
2022-10-05T01:49:59.473Z,10.12
2022-10-05T01:50:59.381Z,10.13
2022-10-05T01:51:59.346Z,10.19
2022-10-05T01:52:59.311Z,10.13
2022-10-05T01:53:59.272Z,10.04
2022-10-05T01:54:59.239Z,9.97
2022-10-05T01:55:59.265Z,10.09
2022-10-05T01:56:59.190Z,10.05
2022-10-05T01:57:59.201Z,10.02
2022-10-05T01:58:59.102Z,10.01
2022-10-05T01:59:59.073Z,10.01
2022-10-05T02:00:59.057Z,9.89
2022-10-05T02:01:59.040Z,10.01
2022-10-05T02:02:59.026Z,9.99
2022-10-05T02:03:58.933Z,9.92
2022-10-05T02:05:03.025Z,9.99
2022-10-05T02:05:58.866Z,9.97
2022-10-05T02:06:58.834Z,9.99
2022-10-05T02:07:58.853Z,9.99
2022-10-05T02:08:58.761Z,9.95
2022-10-05T02:09:58.733Z,9.91
2022-10-05T02:10:58.702Z,9.84
2022-10-05T02:11:58.660Z,9.92
2022-10-05T02:12:58.699Z,9.91
2022-10-05T02:13:58.592Z,9.83
2022-10-05T02:14:58.563Z,9.83
2022-10-05T02:15:58.564Z,9.86
2022-10-05T02:16:58.494Z,9.83
2022-10-05T02:17:58.461Z,9.83
2022-10-05T02:18:58.487Z,9.84
2022-10-05T02:19:58.393Z,9.87
2022-10-05T02:20:58.357Z,9.83
2022-10-05T02:21:58.321Z,9.79
2022-10-05T02:22:58.289Z,9.74
2022-10-05T02:23:58.260Z,9.72
2022-10-05T02:24:58.274Z,9.69
2022-10-05T02:25:58.184Z,9.73
2022-10-05T02:26:58.153Z,9.76
2022-10-05T02:27:58.163Z,9.80
2022-10-05T02:28:58.086Z,9.66
2022-10-05T02:29:58.054Z,9.66
2022-10-05T02:30:58.077Z,9.62
2022-10-05T02:31:58.044Z,9.62
2022-10-05T02:32:57.948Z,9.59
2022-10-05T02:33:57.915Z,9.54
2022-10-05T02:34:57.886Z,9.55
2022-10-05T02:35:57.845Z,9.54
2022-10-05T02:36:57.863Z,9.54
2022-10-05T02:37:57.782Z,9.58
2022-10-05T02:38:57.750Z,9.55
2022-10-05T02:39:57.712Z,9.59
2022-10-05T02:40:57.678Z,9.56
2022-10-05T02:41:57.700Z,9.55
2022-10-05T02:42:57.619Z,9.59
2022-10-05T02:43:57.654Z,9.55
2022-10-05T02:44:57.545Z,9.56
2022-10-05T02:45:57.550Z,9.54
2022-10-05T02:46:58.105Z,9.50
2022-10-05T02:47:57.439Z,9.48
2022-10-05T02:48:57.409Z,9.46
2022-10-05T02:49:57.391Z,9.46
2022-10-05T02:50:57.348Z,9.44
2022-10-05T02:51:57.303Z,9.43
2022-10-05T02:52:57.359Z,9.41
2022-10-05T02:53:57.236Z,9.43
2022-10-05T02:54:57.211Z,9.46
2022-10-05T02:55:57.172Z,9.44
2022-10-05T02:56:57.134Z,9.46
2022-10-05T02:57:57.108Z,9.39
2022-10-05T02:58:57.132Z,9.39
2022-10-05T02:59:57.035Z,9.36
2022-10-05T03:00:57.099Z,9.36
2022-10-05T03:01:56.990Z,9.29
2022-10-05T03:02:56.931Z,9.32
2022-10-05T03:03:56.930Z,9.28
2022-10-05T03:04:56.918Z,9.31
2022-10-05T03:05:56.835Z,9.32
2022-10-05T03:06:56.790Z,9.28
2022-10-05T03:07:56.755Z,9.39
2022-10-05T03:08:56.724Z,9.37
2022-10-05T03:10:00.884Z,9.39
2022-10-05T03:10:56.733Z,9.43
2022-10-05T03:11:56.624Z,9.40
2022-10-05T03:12:56.589Z,9.46
2022-10-05T03:13:56.567Z,9.40
2022-10-05T03:14:56.524Z,9.39
2022-10-05T03:15:56.518Z,9.44
2022-10-05T03:16:56.513Z,9.41
2022-10-05T03:17:56.432Z,9.39
2022-10-05T03:18:56.386Z,9.44
2022-10-05T03:19:56.363Z,9.41
2022-10-05T03:20:56.392Z,9.58
2022-10-05T03:21:56.291Z,9.54
2022-10-05T03:22:56.252Z,9.54
2022-10-05T03:23:56.215Z,9.56
2022-10-05T03:24:56.244Z,9.51
2022-10-05T03:25:56.152Z,9.56
2022-10-05T03:26:56.163Z,9.54
2022-10-05T03:27:56.099Z,9.64
2022-10-05T03:28:56.047Z,9.55
2022-10-05T03:29:56.021Z,9.55
2022-10-05T03:30:56.016Z,9.68
2022-10-05T03:31:56.014Z,9.64
2022-10-05T03:32:55.912Z,9.64
2022-10-05T03:33:55.882Z,9.62
2022-10-05T03:34:55.853Z,9.72
2022-10-05T03:35:55.811Z,9.74
2022-10-05T03:36:55.837Z,9.74
2022-10-05T03:37:55.743Z,9.76
2022-10-05T03:38:55.715Z,9.79
2022-10-05T03:39:55.691Z,9.74
2022-10-05T03:40:55.643Z,9.77
2022-10-05T03:41:55.612Z,9.74
2022-10-05T03:42:55.640Z,9.82
2022-10-05T03:43:55.546Z,9.83
2022-10-05T03:44:55.511Z,9.84
2022-10-05T03:45:55.536Z,9.86
2022-10-05T03:46:55.443Z,9.89
2022-10-05T03:48:01.032Z,9.94
2022-10-05T03:48:55.440Z,9.98
2022-10-05T03:49:55.342Z,9.91
2022-10-05T03:50:55.313Z,9.97
2022-10-05T03:51:55.274Z,10.02
2022-10-05T03:52:55.259Z,9.99
2022-10-05T03:53:55.218Z,10.04
2022-10-05T03:54:55.244Z,10.12
2022-10-05T03:55:55.140Z,10.16
2022-10-05T03:56:55.109Z,10.12
2022-10-05T03:57:55.088Z,10.25
2022-10-05T03:58:55.058Z,10.17
2022-10-05T03:59:55.012Z,10.12
2022-10-05T04:00:55.023Z,10.22
2022-10-05T04:01:54.977Z,10.17
2022-10-05T04:02:55.023Z,10.17
2022-10-05T04:03:54.878Z,10.17
2022-10-05T04:04:54.842Z,10.23
2022-10-05T04:05:54.819Z,10.26
2022-10-05T04:06:54.777Z,10.34
2022-10-05T04:07:54.927Z,10.38
2022-10-05T04:08:54.705Z,10.26
2022-10-05T04:09:54.674Z,10.35
2022-10-05T04:10:54.642Z,10.49
2022-10-05T04:11:54.606Z,10.33
2022-10-05T04:12:54.630Z,10.48
2022-10-05T04:13:54.542Z,10.40
2022-10-05T04:14:54.503Z,10.42
2022-10-05T04:15:54.548Z,10.41
2022-10-05T04:16:54.441Z,10.41
2022-10-05T04:17:54.479Z,10.44
2022-10-05T04:18:54.380Z,10.44
2022-10-05T04:19:54.338Z,10.46
2022-10-05T04:20:54.348Z,10.34
2022-10-05T04:21:54.278Z,10.42
2022-10-05T04:22:54.239Z,10.44
2022-10-05T04:23:54.257Z,10.44
2022-10-05T04:24:54.170Z,10.38
2022-10-05T04:25:54.140Z,10.44
2022-10-05T04:26:54.112Z,10.35
2022-10-05T04:27:54.108Z,10.38
2022-10-05T04:28:54.087Z,10.41
2022-10-05T04:29:54.003Z,10.48
2022-10-05T04:30:53.974Z,10.49
2022-10-05T04:31:54.007Z,10.56
2022-10-05T04:32:53.909Z,10.54
2022-10-05T04:33:53.927Z,10.60
2022-10-05T04:34:53.842Z,10.59
2022-10-05T04:35:53.806Z,10.57
2022-10-05T04:36:53.770Z,10.67
2022-10-05T04:37:53.741Z,10.56
2022-10-05T04:38:53.761Z,10.68
2022-10-05T04:39:53.678Z,10.53
2022-10-05T04:40:53.642Z,10.60
2022-10-05T04:41:53.619Z,10.60
2022-10-05T04:42:53.573Z,10.67
2022-10-05T04:43:53.681Z,10.75
2022-10-05T04:44:57.086Z,10.69
2022-10-05T04:45:53.475Z,10.67
2022-10-05T04:46:53.487Z,10.74
2022-10-05T04:47:53.405Z,10.60
2022-10-05T04:48:53.370Z,10.69
2022-10-05T04:49:53.399Z,10.68
2022-10-05T04:50:53.310Z,10.63
2022-10-05T04:51:53.296Z,10.68
2022-10-05T04:52:53.248Z,10.68
2022-10-05T04:53:53.208Z,10.63
2022-10-05T04:54:53.226Z,10.64
2022-10-05T04:55:53.139Z,10.59
2022-10-05T04:56:53.107Z,10.64
2022-10-05T04:57:53.083Z,10.63
2022-10-05T04:58:53.045Z,10.67
2022-10-05T04:59:53.070Z,10.67
2022-10-05T05:00:53.031Z,10.64
2022-10-05T05:01:52.943Z,10.68
2022-10-05T05:02:52.921Z,10.67
2022-10-05T05:03:52.952Z,10.68
2022-10-05T05:04:52.841Z,10.68
2022-10-05T05:06:15.945Z,10.67
2022-10-05T05:06:52.785Z,10.68
2022-10-05T05:07:52.797Z,10.69
2022-10-05T05:08:52.706Z,10.72
2022-10-05T05:09:52.673Z,10.78
2022-10-05T05:10:52.732Z,10.75
2022-10-05T05:11:52.610Z,10.74
2022-10-05T05:12:52.575Z,10.75
2022-10-05T05:13:52.544Z,10.92
2022-10-05T05:14:52.598Z,10.86
2022-10-05T05:15:52.510Z,10.93
2022-10-05T05:16:52.519Z,10.89
2022-10-05T05:17:52.410Z,10.81
2022-10-05T05:18:52.375Z,10.87
2022-10-05T05:19:52.346Z,10.84
2022-10-05T05:20:52.307Z,10.92
2022-10-05T05:21:52.281Z,10.90
2022-10-05T05:22:52.300Z,10.81
2022-10-05T05:23:52.224Z,10.86
2022-10-05T05:24:52.212Z,10.76
2022-10-05T05:25:52.141Z,10.81
2022-10-05T05:26:52.263Z,10.87
2022-10-05T05:27:52.132Z,10.78
2022-10-05T05:28:52.051Z,10.79
2022-10-05T05:29:52.009Z,10.89
2022-10-05T05:30:52.038Z,10.89
2022-10-05T05:31:52.819Z,10.81
2022-10-05T05:32:51.968Z,10.78
2022-10-05T05:33:51.893Z,10.97
2022-10-05T05:34:51.856Z,10.90
2022-10-05T05:35:51.852Z,10.97
2022-10-05T05:36:51.787Z,11.02
2022-10-05T05:37:51.811Z,10.94
2022-10-05T05:38:51.730Z,11.00
2022-10-05T05:39:51.693Z,11.02
2022-10-05T05:40:51.649Z,11.00
2022-10-05T05:41:51.620Z,11.12
2022-10-05T05:42:51.586Z,11.11
2022-10-05T05:43:51.617Z,11.11
2022-10-05T05:44:54.451Z,11.11
2022-10-05T05:45:51.486Z,11.23
2022-10-05T05:47:03.552Z,11.23
2022-10-05T05:47:51.495Z,11.22
2022-10-05T05:48:51.391Z,11.32
2022-10-05T05:49:51.407Z,11.33
2022-10-05T05:50:51.418Z,11.35
2022-10-05T05:51:51.287Z,11.32
2022-10-05T05:52:51.256Z,11.44
2022-10-05T05:53:51.222Z,11.44
2022-10-05T05:54:51.255Z,11.50
2022-10-05T05:55:51.155Z,11.48
2022-10-05T05:56:51.133Z,11.50
2022-10-05T05:57:51.095Z,11.47
2022-10-05T05:58:51.823Z,11.50
2022-10-05T05:59:51.022Z,11.50
2022-10-05T06:00:51.184Z,11.52
2022-10-05T06:01:51.154Z,11.55
2022-10-05T06:02:51.055Z,11.59
2022-10-05T06:03:50.952Z,11.60
2022-10-05T06:04:50.902Z,11.59
2022-10-05T06:05:50.923Z,11.65
2022-10-05T06:06:50.933Z,11.66
2022-10-05T06:07:50.760Z,11.72
2022-10-05T06:08:50.729Z,11.73
2022-10-05T06:09:50.697Z,11.86
2022-10-05T06:10:50.673Z,11.81
2022-10-05T06:11:50.640Z,11.91
2022-10-05T06:12:50.653Z,11.95
2022-10-05T06:13:50.645Z,12.09
2022-10-05T06:14:50.543Z,12.17
2022-10-05T06:15:50.503Z,12.20
2022-10-05T06:16:51.022Z,12.24
2022-10-05T06:17:50.440Z,12.28
2022-10-05T06:18:50.402Z,12.29
2022-10-05T06:19:50.424Z,12.43
2022-10-05T06:20:50.398Z,12.46
2022-10-05T06:21:50.306Z,12.57
2022-10-05T06:22:50.270Z,12.60
2022-10-05T06:23:50.236Z,12.65
2022-10-05T06:24:50.212Z,12.67
2022-10-05T06:25:50.230Z,12.68
2022-10-05T06:26:50.143Z,12.79
2022-10-05T06:27:50.108Z,12.79
2022-10-05T06:28:50.080Z,12.90
2022-10-05T06:29:50.051Z,12.90
2022-10-05T06:30:50.073Z,12.94
2022-10-05T06:31:50.041Z,12.94
2022-10-05T06:32:49.949Z,12.93
2022-10-05T06:33:49.930Z,12.90
2022-10-05T06:34:49.894Z,12.94
2022-10-05T06:35:49.948Z,12.97
2022-10-05T06:36:50.008Z,12.98
2022-10-05T06:37:49.788Z,13.01
2022-10-05T06:38:49.797Z,13.04
2022-10-05T06:39:49.729Z,13.08
2022-10-05T06:40:49.698Z,13.13
2022-10-05T06:41:49.721Z,13.22
2022-10-05T06:42:49.631Z,13.25
2022-10-05T06:43:49.854Z,13.13
2022-10-05T06:44:49.582Z,13.11
2022-10-05T06:45:49.663Z,13.12
2022-10-05T06:46:49.817Z,13.31
2022-10-05T06:47:49.468Z,13.23
2022-10-05T06:48:49.448Z,13.30
2022-10-05T06:49:50.336Z,13.23
2022-10-05T06:50:49.384Z,13.30
2022-10-05T06:51:49.410Z,13.27
2022-10-05T06:52:49.317Z,13.30
2022-10-05T06:53:49.282Z,13.31
2022-10-05T06:54:49.252Z,13.25
2022-10-05T06:55:49.217Z,13.35
2022-10-05T06:56:49.581Z,13.31
2022-10-05T06:57:49.199Z,13.35
2022-10-05T06:58:49.122Z,13.33
2022-10-05T06:59:49.089Z,13.44
2022-10-05T07:00:49.084Z,13.47
2022-10-05T07:01:49.485Z,13.53
2022-10-05T07:02:49.044Z,13.57
2022-10-05T07:03:48.969Z,13.60
2022-10-05T07:04:48.936Z,13.56
2022-10-05T07:05:48.900Z,13.60
2022-10-05T07:06:48.875Z,13.60
2022-10-05T07:07:48.902Z,13.63
2022-10-05T07:08:48.813Z,13.71
2022-10-05T07:09:48.777Z,13.60
2022-10-05T07:10:48.747Z,13.63
2022-10-05T07:11:54.675Z,13.65
2022-10-05T07:12:48.691Z,13.68
2022-10-05T07:13:48.703Z,13.67
2022-10-05T07:14:48.619Z,13.68
2022-10-05T07:15:48.591Z,13.62
2022-10-05T07:16:48.616Z,13.56
2022-10-05T07:17:48.524Z,13.57
2022-10-05T07:18:48.544Z,13.67
2022-10-05T07:19:48.458Z,13.65
2022-10-05T07:20:49.372Z,13.65
2022-10-05T07:21:48.813Z,13.67
2022-10-05T07:22:48.372Z,13.68
2022-10-05T07:23:48.335Z,13.65
2022-10-05T07:24:48.371Z,13.70
2022-10-05T07:25:48.273Z,13.75
2022-10-05T07:26:48.582Z,13.74
2022-10-05T07:27:50.989Z,13.85
2022-10-05T07:28:48.182Z,13.90
2022-10-05T07:29:48.150Z,13.93
2022-10-05T07:30:48.235Z,14.11
2022-10-05T07:31:48.087Z,14.17
2022-10-05T07:32:48.062Z,14.26
2022-10-05T07:33:48.043Z,14.28
2022-10-05T07:34:47.994Z,14.25
2022-10-05T07:35:47.962Z,14.40
2022-10-05T07:36:53.723Z,14.44
2022-10-05T07:37:47.900Z,14.58
2022-10-05T07:38:47.874Z,14.54
2022-10-05T07:40:00.087Z,14.60
2022-10-05T07:40:47.807Z,14.68
2022-10-05T07:41:47.775Z,14.68
2022-10-05T07:42:52.022Z,14.72
2022-10-05T07:44:03.856Z,14.62
2022-10-05T07:44:47.684Z,14.70
2022-10-05T07:45:47.726Z,14.78
2022-10-05T07:46:47.767Z,14.79
2022-10-05T07:47:47.653Z,14.97
2022-10-05T07:48:48.035Z,15.09
2022-10-05T07:49:47.531Z,15.14
2022-10-05T07:50:47.499Z,15.22
2022-10-05T07:51:47.473Z,15.28
2022-10-05T07:52:47.438Z,15.42
2022-10-05T07:53:47.406Z,15.40
2022-10-05T07:54:47.425Z,15.49
2022-10-05T07:55:47.351Z,15.51
2022-10-05T07:56:47.527Z,15.54
2022-10-05T07:57:47.356Z,15.65
2022-10-05T07:58:47.256Z,15.76
2022-10-05T07:59:47.233Z,15.72
2022-10-05T08:00:47.191Z,15.77
2022-10-05T08:01:47.246Z,15.73
2022-10-05T08:02:47.191Z,15.76
2022-10-05T08:03:47.161Z,15.79
2022-10-05T08:04:47.074Z,15.83
2022-10-05T08:05:47.048Z,15.82
2022-10-05T08:06:47.198Z,15.77
2022-10-05T08:07:46.985Z,15.80
2022-10-05T08:08:46.971Z,15.80
2022-10-05T08:09:46.980Z,15.88
2022-10-05T08:10:46.898Z,15.82
2022-10-05T08:11:47.224Z,15.82
2022-10-05T08:12:46.829Z,16.00
2022-10-05T08:13:56.006Z,16.08
2022-10-05T08:14:46.776Z,16.12
2022-10-05T08:15:46.860Z,16.04
2022-10-05T08:16:46.716Z,16.12
2022-10-05T08:17:46.689Z,16.08
2022-10-05T08:18:46.652Z,16.12
2022-10-05T08:19:46.626Z,16.31
2022-10-05T08:20:46.596Z,16.49
2022-10-05T08:21:47.096Z,16.42
2022-10-05T08:22:46.562Z,16.50
2022-10-05T08:23:46.505Z,16.47
2022-10-05T08:24:46.480Z,16.51
2022-10-05T08:25:46.597Z,16.46
2022-10-05T08:26:46.424Z,16.50
2022-10-05T08:27:46.442Z,16.58
2022-10-05T08:28:46.357Z,16.64
2022-10-05T08:29:46.330Z,16.76
2022-10-05T08:30:46.344Z,16.78
2022-10-05T08:31:46.607Z,16.83
2022-10-05T08:32:46.235Z,16.81
2022-10-05T08:33:46.396Z,16.81
2022-10-05T08:34:46.548Z,16.89
2022-10-05T08:35:46.149Z,16.90
2022-10-05T08:36:49.178Z,16.97
2022-10-05T08:37:46.091Z,17.01
2022-10-05T08:38:46.067Z,17.11
2022-10-05T08:39:46.116Z,17.08
2022-10-05T08:40:46.007Z,17.16
2022-10-05T08:41:46.210Z,17.23
2022-10-05T08:42:45.952Z,17.24
2022-10-05T08:43:45.913Z,17.33
2022-10-05T08:44:45.887Z,17.36
2022-10-05T08:45:45.981Z,17.41
2022-10-05T08:46:45.831Z,17.39
2022-10-05T08:47:45.801Z,17.51
2022-10-05T08:48:45.774Z,17.57
2022-10-05T08:49:45.763Z,17.57
2022-10-05T08:50:45.714Z,17.76
2022-10-05T08:51:46.030Z,17.76
2022-10-05T08:52:45.660Z,17.65
2022-10-05T08:53:45.639Z,17.72
2022-10-05T08:54:45.611Z,17.63
2022-10-05T08:55:45.568Z,17.67
2022-10-05T08:56:45.545Z,17.71
2022-10-05T08:57:45.573Z,17.82
2022-10-05T08:58:45.482Z,17.67
2022-10-05T08:59:45.520Z,17.82
2022-10-05T09:00:45.477Z,17.90
2022-10-05T09:01:45.809Z,17.90
2022-10-05T09:02:45.401Z,17.90
2022-10-05T09:03:45.404Z,17.97
2022-10-05T09:04:45.316Z,17.94
2022-10-05T09:05:45.286Z,18.04
2022-10-05T09:06:45.255Z,18.05
2022-10-05T09:07:45.256Z,17.95
2022-10-05T09:08:45.204Z,17.90
2022-10-05T09:09:45.246Z,18.03
2022-10-05T09:10:45.189Z,18.10
2022-10-05T09:11:45.387Z,18.18
2022-10-05T09:12:45.083Z,18.20
2022-10-05T09:13:45.054Z,18.15
2022-10-05T09:14:52.447Z,18.08
2022-10-05T09:15:45.126Z,18.10
2022-10-05T09:16:44.971Z,18.08
2022-10-05T09:17:44.947Z,18.11
2022-10-05T09:18:44.917Z,18.04
2022-10-05T09:19:44.894Z,17.98
2022-10-05T09:20:44.867Z,18.00
2022-10-05T09:21:45.305Z,18.01
2022-10-05T09:22:44.815Z,18.03
2022-10-05T09:23:44.791Z,17.82
2022-10-05T09:24:48.360Z,17.85
2022-10-05T09:25:44.817Z,17.80
2022-10-05T09:26:44.695Z,17.78
2022-10-05T09:27:44.743Z,17.80
2022-10-05T09:28:44.647Z,17.67
2022-10-05T09:29:44.626Z,17.72
2022-10-05T09:30:44.668Z,17.67
2022-10-05T09:31:44.855Z,17.56
2022-10-05T09:32:44.530Z,17.63
2022-10-05T09:33:44.560Z,17.65
2022-10-05T09:34:44.473Z,17.67
2022-10-05T09:35:44.562Z,17.82
2022-10-05T09:36:44.415Z,17.72
2022-10-05T09:37:44.390Z,17.79
2022-10-05T09:38:44.368Z,17.97
2022-10-05T09:39:44.410Z,17.92
2022-10-05T09:40:44.298Z,17.97
2022-10-05T09:41:44.473Z,18.01
2022-10-05T09:42:44.241Z,18.03
2022-10-05T09:43:44.212Z,18.15
2022-10-05T09:44:44.183Z,18.08
2022-10-05T09:45:44.215Z,18.03
2022-10-05T09:46:44.228Z,18.07
2022-10-05T09:47:44.112Z,18.08
2022-10-05T09:48:44.083Z,18.08
2022-10-05T09:49:44.070Z,18.19
2022-10-05T09:50:44.013Z,18.18
2022-10-05T09:51:44.277Z,18.18
2022-10-05T09:52:43.954Z,18.05
2022-10-05T09:53:44.001Z,18.15
2022-10-05T09:54:43.899Z,18.13
2022-10-05T09:55:43.866Z,18.20
2022-10-05T09:56:44.117Z,18.20
2022-10-05T09:57:43.812Z,18.29
2022-10-05T09:58:43.783Z,18.28
2022-10-05T09:59:43.827Z,18.26
2022-10-05T10:00:50.151Z,18.19
2022-10-05T10:01:43.767Z,18.28
2022-10-05T10:02:43.785Z,18.25
2022-10-05T10:03:43.638Z,18.33
2022-10-05T10:04:43.612Z,18.25
2022-10-05T10:05:43.655Z,18.35
2022-10-05T10:06:43.587Z,18.28
2022-10-05T10:07:43.542Z,18.35
2022-10-05T10:08:43.514Z,18.34
2022-10-05T10:09:43.474Z,18.15
2022-10-05T10:10:43.442Z,18.16
2022-10-05T10:11:43.535Z,18.20
2022-10-05T10:12:43.382Z,18.20
2022-10-05T10:13:43.386Z,18.29
2022-10-05T10:14:43.329Z,18.29
2022-10-05T10:15:43.357Z,18.31
2022-10-05T10:16:43.270Z,18.31
2022-10-05T10:17:43.301Z,18.43
2022-10-05T10:18:43.217Z,18.56
2022-10-05T10:19:43.182Z,18.63
2022-10-05T10:20:43.157Z,18.63
2022-10-05T10:21:43.121Z,18.78
2022-10-05T10:22:43.447Z,18.81
2022-10-05T10:23:43.125Z,18.88
2022-10-05T10:24:43.061Z,18.93
2022-10-05T10:25:43.015Z,18.86
2022-10-05T10:26:42.991Z,19.04
2022-10-05T10:27:42.964Z,18.95
2022-10-05T10:28:42.934Z,18.86
2022-10-05T10:29:42.972Z,18.93
2022-10-05T10:30:42.941Z,18.96
2022-10-05T10:31:42.843Z,18.93
2022-10-05T10:32:42.819Z,18.98
2022-10-05T10:33:42.793Z,18.99
2022-10-05T10:34:42.877Z,19.18
2022-10-05T10:35:42.796Z,19.15
2022-10-05T10:36:42.701Z,19.14
2022-10-05T10:37:42.676Z,19.26
2022-10-05T10:38:42.655Z,19.29
2022-10-05T10:39:42.620Z,19.27
2022-10-05T10:40:42.600Z,19.34
2022-10-05T10:41:42.624Z,19.18
2022-10-05T10:42:42.538Z,19.18
2022-10-05T10:43:42.511Z,19.14
2022-10-05T10:44:42.487Z,19.15
2022-10-05T10:45:42.455Z,19.19
2022-10-05T10:46:42.508Z,19.15
2022-10-05T10:47:42.460Z,19.22
2022-10-05T10:48:42.371Z,19.30
2022-10-05T10:49:42.347Z,19.36
2022-10-05T10:50:42.321Z,19.40
2022-10-05T10:51:42.285Z,19.39
2022-10-05T10:52:42.265Z,19.44
2022-10-05T10:53:42.300Z,19.47
2022-10-05T10:54:42.207Z,19.40
2022-10-05T10:55:42.183Z,19.44
2022-10-05T10:56:42.150Z,19.48
2022-10-05T10:57:42.130Z,19.44
2022-10-05T10:58:42.101Z,19.52
2022-10-05T10:59:42.138Z,19.54
2022-10-05T11:00:42.044Z,19.67
2022-10-05T11:01:42.079Z,19.66
2022-10-05T11:02:43.012Z,19.69
2022-10-05T11:03:41.966Z,19.66
2022-10-05T11:04:41.941Z,19.64
2022-10-05T11:05:46.358Z,19.66
2022-10-05T11:06:41.881Z,19.73
2022-10-05T11:07:41.851Z,19.79
2022-10-05T11:08:41.823Z,19.82
2022-10-05T11:09:41.799Z,19.77
2022-10-05T11:10:41.765Z,19.94
2022-10-05T11:11:41.811Z,20.03
2022-10-05T11:12:41.875Z,20.14
2022-10-05T11:13:41.690Z,20.19
2022-10-05T11:14:41.667Z,20.19
2022-10-05T11:15:41.678Z,20.31
2022-10-05T11:16:41.603Z,20.29
2022-10-05T11:17:41.661Z,20.48
2022-10-05T11:18:41.556Z,20.50
2022-10-05T11:20:02.618Z,20.72
2022-10-05T11:20:41.500Z,20.69
2022-10-05T11:21:41.471Z,20.87
2022-10-05T11:22:41.473Z,20.87
2022-10-05T11:23:41.476Z,20.84
2022-10-05T11:24:41.391Z,20.81
2022-10-05T11:25:41.372Z,20.81
2022-10-05T11:26:41.334Z,20.96
2022-10-05T11:27:41.308Z,20.92
2022-10-05T11:28:41.351Z,20.93
2022-10-05T11:29:41.320Z,20.95
2022-10-05T11:30:41.224Z,21.02
2022-10-05T11:31:41.272Z,21.07
2022-10-05T11:32:41.180Z,21.03
2022-10-05T11:33:41.143Z,21.07
2022-10-05T11:34:41.118Z,21.05
2022-10-05T11:35:41.157Z,21.06
2022-10-05T11:36:41.068Z,21.12
2022-10-05T11:37:41.040Z,21.07
2022-10-05T11:38:41.017Z,21.03
2022-10-05T11:39:40.984Z,21.09
2022-10-05T11:40:40.965Z,21.07
2022-10-05T11:41:41.003Z,20.97
2022-10-05T11:42:40.915Z,20.93
2022-10-05T11:43:40.897Z,21.00
2022-10-05T11:44:40.861Z,20.97
2022-10-05T11:45:40.831Z,20.88
2022-10-05T11:46:40.883Z,20.84
2022-10-05T11:47:40.851Z,20.70
2022-10-05T11:48:40.758Z,20.60
2022-10-05T11:49:40.727Z,20.55
2022-10-05T11:50:40.699Z,20.40
2022-10-05T11:51:40.677Z,20.29
2022-10-05T11:52:40.647Z,20.18
2022-10-05T11:53:40.680Z,20.24
2022-10-05T11:55:05.805Z,20.13
2022-10-05T11:55:40.623Z,20.11
2022-10-05T11:56:40.550Z,20.04
2022-10-05T11:57:40.515Z,20.09
2022-10-05T11:58:40.494Z,19.92
2022-10-05T11:59:40.459Z,19.88
2022-10-05T12:00:40.536Z,19.88
2022-10-05T12:01:40.419Z,19.85
2022-10-05T12:02:43.620Z,19.81
2022-10-05T12:03:40.452Z,19.81
2022-10-05T12:04:40.327Z,19.86
2022-10-05T12:05:40.297Z,19.86
2022-10-05T12:06:40.338Z,19.85
2022-10-05T12:07:40.241Z,19.86
2022-10-05T12:08:40.224Z,19.89
2022-10-05T12:09:40.187Z,19.84
2022-10-05T12:10:40.172Z,19.89
2022-10-05T12:11:40.138Z,19.81
2022-10-05T12:12:40.190Z,19.81
2022-10-05T12:13:40.089Z,19.71
2022-10-05T12:14:40.059Z,19.79
2022-10-05T12:15:40.027Z,19.91
2022-10-05T12:16:40.001Z,19.88
2022-10-05T12:17:39.986Z,19.92
2022-10-05T12:18:40.029Z,19.92
2022-10-05T12:19:39.920Z,19.85
2022-10-05T12:20:39.899Z,19.82
2022-10-05T12:21:39.864Z,19.88
2022-10-05T12:22:39.843Z,19.84
2022-10-05T12:23:39.815Z,19.92
2022-10-05T12:24:39.835Z,19.89
2022-10-05T12:25:39.754Z,19.84
2022-10-05T12:26:39.731Z,19.86
2022-10-05T12:27:39.706Z,19.92
2022-10-05T12:28:39.702Z,19.89
2022-10-05T12:29:39.723Z,19.79
2022-10-05T12:30:39.672Z,19.86
2022-10-05T12:31:39.706Z,19.84
2022-10-05T12:32:39.562Z,19.91
2022-10-05T12:33:39.536Z,19.86
2022-10-05T12:34:39.508Z,20.00
2022-10-05T12:35:53.762Z,19.95
2022-10-05T12:37:03.205Z,19.92
2022-10-05T12:37:39.540Z,19.95
2022-10-05T12:38:39.399Z,20.04
2022-10-05T12:39:39.378Z,19.92
2022-10-05T12:40:39.345Z,19.94
2022-10-05T12:41:39.312Z,19.89
2022-10-05T12:42:41.750Z,19.91
2022-10-05T12:43:39.261Z,19.88
2022-10-05T12:44:40.095Z,19.91
2022-10-05T12:45:39.229Z,19.85
2022-10-05T12:46:39.173Z,19.89
2022-10-05T12:47:39.157Z,19.92
2022-10-05T12:48:39.199Z,19.86
2022-10-05T12:49:39.145Z,19.86
2022-10-05T12:50:39.068Z,19.88
2022-10-05T12:51:39.039Z,19.92
2022-10-05T12:52:39.010Z,19.99
2022-10-05T12:53:38.996Z,19.88
2022-10-05T12:54:39.020Z,19.92
2022-10-05T12:55:38.957Z,19.89